Time;durP1;ratioP1;P1;durP2;ratioP2;P2;SDS_P1;SDS_P2;PMS_P1;PMS_P2;Temp;Humidity;BMP_temperature;BMP_pressure;BME280_temperature;BME280_humidity;BME280_pressure;Samples;Min_cycle;Max_cycle;Signal;HPM_P1;HPM_P2
2021/01/07 00:01:23;;;;;;;7.88;7.10;;;28.50;65.50;;;;;;4921142;29;20292;-63
2021/01/07 00:03:54;;;;;;;8.15;7.35;;;28.50;65.50;;;;;;4928419;29;20819;-50
2021/01/07 00:06:24;;;;;;;8.35;7.50;;;28.50;65.30;;;;;;4927923;29;20614;-50
2021/01/07 00:08:54;;;;;;;8.98;7.60;;;28.50;65.30;;;;;;4927694;29;20237;-54
2021/01/07 00:11:25;;;;;;;7.63;6.85;;;28.50;65.20;;;;;;4926757;28;20237;-52
2021/01/07 00:13:57;;;;;;;9.80;7.38;;;28.60;65.50;;;;;;4928091;29;20234;-53
2021/01/07 00:16:28;;;;;;;8.35;6.82;;;28.60;65.30;;;;;;4925866;29;20241;-53
2021/01/07 00:18:58;;;;;;;8.98;7.05;;;28.60;65.50;;;;;;4924851;29;20269;-54
2021/01/07 00:21:29;;;;;;;8.25;6.57;;;28.60;65.30;;;;;;4922762;29;20238;-56
2021/01/07 00:23:59;;;;;;;7.40;6.70;;;28.70;65.40;;;;;;4926792;29;20234;-54
2021/01/07 00:26:31;;;;;;;8.57;6.63;;;28.70;65.30;;;;;;4927474;28;20238;-55
2021/01/07 00:29:03;;;;;;;8.40;6.63;;;28.70;65.30;;;;;;4931792;28;20275;-54
2021/01/07 00:31:33;;;;;;;8.45;6.68;;;28.80;65.30;;;;;;4966134;28;20650;-54
2021/01/07 00:34:04;;;;;;;6.88;6.05;;;28.80;65.30;;;;;;4968569;28;20876;-50
2021/01/07 00:36:35;;;;;;;7.45;6.60;;;28.80;65.10;;;;;;4965001;28;20229;-53
2021/01/07 00:39:06;;;;;;;7.88;6.15;;;28.90;65.10;;;;;;4967330;28;20241;-56
2021/01/07 00:41:37;;;;;;;7.63;6.90;;;28.90;65.10;;;;;;4966595;28;20308;-54
2021/01/07 00:44:09;;;;;;;8.35;6.63;;;29.00;65.10;;;;;;4969528;28;20304;-56
2021/01/07 00:46:40;;;;;;;7.43;6.72;;;29.00;65.00;;;;;;4967835;28;20312;-52
2021/01/07 00:49:11;;;;;;;8.38;7.53;;;29.10;65.10;;;;;;4962590;28;20256;-53
2021/01/07 00:51:41;;;;;;;7.05;6.45;;;29.10;64.80;;;;;;4970909;28;20236;-56
2021/01/07 00:54:12;;;;;;;7.47;6.78;;;29.20;64.60;;;;;;4964876;28;20327;-56
2021/01/07 00:56:42;;;;;;;7.40;6.70;;;29.20;64.70;;;;;;4957968;28;20232;-56
2021/01/07 00:59:14;;;;;;;7.10;6.40;;;29.30;64.60;;;;;;4961342;28;20639;-54
2021/01/07 01:01:45;;;;;;;9.57;7.28;;;29.40;64.40;;;;;;4962967;28;20244;-54
2021/01/07 01:04:16;;;;;;;7.63;6.97;;;29.40;64.20;;;;;;4961366;28;20332;-51
2021/01/07 01:06:47;;;;;;;8.20;7.40;;;29.50;64.20;;;;;;4964398;28;20336;-52
2021/01/07 01:09:17;;;;;;;8.30;7.50;;;29.60;64.00;;;;;;4966796;28;20232;-56
2021/01/07 01:11:48;;;;;;;9.32;7.22;;;29.60;63.90;;;;;;5001149;28;20240;-50
2021/01/07 01:14:20;;;;;;;8.50;7.55;;;29.70;63.80;;;;;;4963254;28;20233;-51
2021/01/07 01:16:52;;;;;;;11.68;8.02;;;29.80;64.40;;;;;;4963934;28;20236;-51
2021/01/07 01:19:22;;;;;;;8.10;7.30;;;29.80;63.00;;;;;;4965181;28;20240;-49
2021/01/07 01:21:53;;;;;;;8.65;7.25;;;29.90;63.30;;;;;;4964512;28;20225;-50
2021/01/07 01:24:24;;;;;;;7.35;6.65;;;29.90;63.20;;;;;;4959747;28;20229;-53
2021/01/07 01:26:58;;;;;;;8.30;7.50;;;30.00;63.20;;;;;;4966211;28;20699;-54
2021/01/07 01:29:30;;;;;;;8.43;7.63;;;30.10;62.90;;;;;;4982389;28;20285;-52
2021/01/07 01:32:01;;;;;;;10.40;8.02;;;30.10;62.60;;;;;;4966392;28;20672;-54
2021/01/07 01:34:31;;;;;;;9.52;8.48;;;30.20;62.40;;;;;;4965890;28;20233;-54
2021/01/07 01:37:06;;;;;;;8.90;7.53;;;30.20;62.10;;;;;;4962963;28;20233;-57
2021/01/07 01:39:36;;;;;;;8.30;7.55;;;30.30;61.80;;;;;;4962649;28;20232;-52
2021/01/07 01:42:07;;;;;;;8.25;7.45;;;30.30;61.70;;;;;;4961045;28;20225;-55
2021/01/07 01:44:39;;;;;;;9.98;7.50;;;30.40;61.80;;;;;;4966807;28;20235;-56
2021/01/07 01:47:10;;;;;;;9.52;7.78;;;30.40;61.30;;;;;;4956448;28;20283;-52
2021/01/07 01:49:40;;;;;;;8.95;8.00;;;30.50;61.50;;;;;;4962997;28;20286;-52
2021/01/07 01:52:11;;;;;;;10.43;7.93;;;30.50;61.20;;;;;;4964192;28;20232;-52
2021/01/07 01:54:41;;;;;;;8.02;6.97;;;30.60;61.00;;;;;;4966090;28;20247;-51
2021/01/07 01:57:13;;;;;;;8.43;7.25;;;30.70;61.10;;;;;;4962459;28;20294;-54
2021/01/07 01:59:45;;;;;;;8.52;7.72;;;30.70;61.00;;;;;;4988172;28;20322;-52
2021/01/07 02:02:17;;;;;;;8.20;7.50;;;30.80;60.80;;;;;;4975179;28;20249;-56
2021/01/07 02:04:48;;;;;;;7.88;7.07;;;30.90;60.80;;;;;;5004564;28;20233;-56
2021/01/07 02:07:21;;;;;;;10.27;8.27;;;30.90;60.50;;;;;;4966773;28;20229;-56
2021/01/07 02:09:51;;;;;;;8.63;7.75;;;31.00;59.90;;;;;;4960729;28;20519;-56
2021/01/07 02:12:22;;;;;;;8.38;7.47;;;31.00;59.70;;;;;;4962259;28;20233;-55
2021/01/07 02:14:54;;;;;;;9.82;7.55;;;31.10;59.60;;;;;;4965430;28;20240;-56
2021/01/07 02:17:24;;;;;;;9.50;6.93;;;31.20;59.70;;;;;;4961913;28;20309;-54
2021/01/07 02:20:00;;;;;;;7.95;7.25;;;31.30;60.40;;;;;;4958686;28;20229;-54
2021/01/07 02:22:30;;;;;;;7.95;7.20;;;31.30;59.40;;;;;;4953546;28;20241;-51
2021/01/07 02:25:02;;;;;;;7.80;7.10;;;31.40;59.20;;;;;;4963444;28;20237;-53
2021/01/07 02:27:34;;;;;;;8.48;6.90;;;31.40;59.90;;;;;;4990362;28;20241;-49
2021/01/07 02:30:05;;;;;;;7.45;6.68;;;31.50;58.90;;;;;;4956613;28;20236;-54
2021/01/07 02:32:35;;;;;;;8.35;7.40;;;31.60;58.90;;;;;;4964936;28;20302;-53
2021/01/07 02:35:08;;;;;;;8.77;7.28;;;31.60;58.80;;;;;;4999193;28;20232;-49
2021/01/07 02:37:41;;;;;;;9.60;7.30;;;31.70;58.70;;;;;;4969040;28;20278;-50
2021/01/07 02:40:11;;;;;;;6.97;6.38;;;31.80;58.60;;;;;;4968984;28;20236;-56
2021/01/07 02:42:42;;;;;;;8.60;7.00;;;31.80;58.70;;;;;;4970191;28;20642;-52
2021/01/07 02:45:13;;;;;;;10.10;6.68;;;31.90;58.30;;;;;;4957451;28;20240;-52
2021/01/07 02:47:43;;;;;;;7.32;6.63;;;32.00;58.30;;;;;;4962793;28;20258;-49
2021/01/07 02:50:16;;;;;;;8.02;7.20;;;32.10;58.30;;;;;;4954449;28;20721;-54
2021/01/07 02:52:46;;;;;;;9.00;8.10;;;32.10;57.90;;;;;;4964848;28;20260;-53
2021/01/07 02:55:17;;;;;;;8.35;7.63;;;32.20;57.80;;;;;;4959091;28;20241;-52
2021/01/07 02:57:49;;;;;;;7.88;7.18;;;32.30;57.90;;;;;;4966243;28;20311;-50
2021/01/07 03:00:20;;;;;;;8.80;7.53;;;32.30;57.70;;;;;;4968991;28;20244;-52
2021/01/07 03:02:51;;;;;;;8.07;7.28;;;32.40;57.70;;;;;;4963246;28;20431;-53
2021/01/07 03:05:23;;;;;;;8.07;7.30;;;32.40;57.70;;;;;;4964074;28;20241;-52
2021/01/07 03:07:53;;;;;;;10.00;6.97;;;32.50;57.70;;;;;;4962746;28;20255;-55
2021/01/07 03:10:24;;;;;;;7.68;6.97;;;32.60;57.40;;;;;;4961049;28;20232;-54
2021/01/07 03:12:55;;;;;;;7.68;7.05;;;32.60;57.00;;;;;;4962899;28;20307;-56
2021/01/07 03:15:25;;;;;;;9.68;7.80;;;32.70;57.20;;;;;;4961200;28;20255;-52
2021/01/07 03:17:56;;;;;;;7.72;7.03;;;32.80;57.10;;;;;;4958382;28;20607;-53
2021/01/07 03:20:27;;;;;;;7.20;6.50;;;32.80;57.20;;;;;;4985381;28;20222;-52
2021/01/07 03:22:58;;;;;;;8.70;7.88;;;32.90;57.20;;;;;;4971874;28;20757;-50
2021/01/07 03:25:29;;;;;;;10.25;7.10;;;32.90;56.70;;;;;;4963932;28;20245;-54
2021/01/07 03:27:59;;;;;;;7.57;6.97;;;33.00;56.80;;;;;;4964062;28;20236;-56
2021/01/07 03:30:30;;;;;;;7.35;6.75;;;33.00;56.70;;;;;;4967604;28;20245;-53
2021/01/07 03:33:01;;;;;;;8.05;6.68;;;33.10;56.50;;;;;;4965246;28;20643;-57
2021/01/07 03:35:33;;;;;;;7.53;6.93;;;33.20;56.50;;;;;;4957088;28;20309;-57
2021/01/07 03:38:03;;;;;;;8.18;7.00;;;33.20;56.40;;;;;;4957921;28;20306;-56
2021/01/07 03:40:34;;;;;;;7.53;6.78;;;33.30;56.30;;;;;;4959519;28;20713;-54
2021/01/07 03:43:04;;;;;;;7.30;6.55;;;33.30;56.30;;;;;;4960610;28;20327;-53
2021/01/07 03:45:35;;;;;;;7.35;6.63;;;33.40;56.60;;;;;;4960810;28;20248;-54
2021/01/07 03:48:06;;;;;;;7.03;6.45;;;33.40;56.20;;;;;;4962144;28;20236;-50
2021/01/07 03:50:38;;;;;;;7.07;6.38;;;33.50;56.00;;;;;;4957821;28;20233;-51
2021/01/07 03:53:09;;;;;;;7.78;6.97;;;33.60;55.90;;;;;;4961951;28;20241;-50
2021/01/07 03:55:39;;;;;;;10.68;6.80;;;33.70;55.60;;;;;;4962358;28;20317;-53
2021/01/07 03:58:10;;;;;;;7.53;6.35;;;33.80;55.50;;;;;;4976702;28;20226;-52
2021/01/07 04:00:41;;;;;;;7.60;6.90;;;33.80;55.30;;;;;;4954520;28;20685;-53
2021/01/07 04:03:14;;;;;;;7.43;6.72;;;33.90;55.50;;;;;;4962710;28;20321;-52
2021/01/07 04:05:45;;;;;;;8.18;7.38;;;33.90;55.50;;;;;;4960537;28;20236;-54
2021/01/07 04:08:16;;;;;;;8.02;7.30;;;34.10;54.90;;;;;;4960964;28;21383;-51
2021/01/07 04:10:46;;;;;;;8.25;7.45;;;34.10;54.80;;;;;;4966930;28;20236;-57
2021/01/07 04:13:17;;;;;;;8.93;8.00;;;34.20;54.40;;;;;;4968190;28;20272;-55
2021/01/07 04:15:47;;;;;;;9.25;7.45;;;34.30;54.30;;;;;;4959719;28;20233;-55
2021/01/07 04:18:18;;;;;;;8.30;7.60;;;34.30;54.10;;;;;;4963352;28;20232;-56
2021/01/07 04:20:50;;;;;;;8.65;7.88;;;34.30;53.60;;;;;;4956681;28;20320;-55
2021/01/07 04:23:20;;;;;;;8.27;7.47;;;34.40;53.50;;;;;;4958865;28;20241;-53
2021/01/07 04:25:51;;;;;;;7.60;6.90;;;34.40;53.40;;;;;;4964301;28;20264;-52
2021/01/07 04:28:21;;;;;;;7.65;6.72;;;34.40;53.40;;;;;;4966324;28;20237;-50
2021/01/07 04:30:52;;;;;;;7.70;7.00;;;34.40;53.40;;;;;;4964546;28;20233;-50
2021/01/07 04:33:22;;;;;;;7.32;6.63;;;34.50;53.20;;;;;;4960065;28;20314;-54
2021/01/07 04:35:54;;;;;;;6.90;6.30;;;34.50;53.10;;;;;;4962284;28;20601;-52
2021/01/07 04:38:24;;;;;;;7.32;6.72;;;34.50;53.30;;;;;;4958102;28;20697;-51
2021/01/07 04:40:56;;;;;;;7.60;6.82;;;34.50;53.40;;;;;;4964699;28;20236;-56
2021/01/07 04:43:27;;;;;;;8.13;7.32;;;34.60;53.40;;;;;;4966038;28;20256;-55
2021/01/07 04:45:59;;;;;;;6.78;6.28;;;34.60;52.60;;;;;;4967652;28;20224;-57
2021/01/07 04:48:29;;;;;;;7.53;6.93;;;34.70;52.90;;;;;;4928462;29;20593;-57
2021/01/07 04:51:01;;;;;;;7.20;6.60;;;34.80;52.60;;;;;;4928120;28;20724;-55
2021/01/07 04:53:31;;;;;;;6.95;6.35;;;34.70;52.50;;;;;;4929163;28;20252;-56
2021/01/07 04:56:02;;;;;;;8.05;6.47;;;34.80;52.80;;;;;;4912234;28;20227;-51
2021/01/07 04:58:32;;;;;;;7.43;6.35;;;34.80;52.80;;;;;;4906860;28;20226;-52
2021/01/07 05:01:02;;;;;;;7.30;6.28;;;34.90;52.20;;;;;;4908037;28;20234;-50
2021/01/07 05:03:33;;;;;;;6.65;6.05;;;35.00;52.30;;;;;;4853568;29;20241;-56
2021/01/07 05:06:05;;;;;;;6.82;6.20;;;35.00;52.30;;;;;;4851552;29;20603;-51
2021/01/07 05:08:35;;;;;;;7.90;6.57;;;35.00;52.20;;;;;;4852338;29;20329;-50
2021/01/07 05:11:06;;;;;;;8.20;7.50;;;35.10;51.90;;;;;;4852148;29;20340;-53
2021/01/07 05:13:36;;;;;;;9.73;8.15;;;35.10;51.20;;;;;;4901294;29;20676;-56
2021/01/07 05:16:07;;;;;;;8.10;7.30;;;35.10;51.60;;;;;;4871297;29;20609;-54
2021/01/07 05:18:38;;;;;;;8.20;7.50;;;35.10;51.30;;;;;;4870918;28;20319;-57
2021/01/07 05:21:10;;;;;;;7.28;6.43;;;35.20;51.10;;;;;;4867541;29;20240;-56
2021/01/07 05:23:41;;;;;;;7.35;6.75;;;35.20;51.20;;;;;;4872417;28;20236;-57
2021/01/07 05:26:12;;;;;;;8.93;7.45;;;35.20;51.10;;;;;;4869832;29;20798;-56
2021/01/07 05:28:42;;;;;;;7.70;7.10;;;35.30;50.80;;;;;;4906924;29;20679;-58
2021/01/07 05:31:14;;;;;;;9.40;7.00;;;35.30;50.80;;;;;;4911045;29;20758;-55
2021/01/07 05:33:44;;;;;;;7.88;7.10;;;35.30;50.90;;;;;;4913782;29;20285;-54
2021/01/07 05:36:34;;;;;;;7.00;6.40;;;35.40;51.10;;;;;;4926498;29;20234;-53
2021/01/07 05:39:05;;;;;;;7.72;7.00;;;35.40;50.70;;;;;;4930329;29;20687;-57
2021/01/07 05:41:37;;;;;;;8.73;7.50;;;35.50;50.60;;;;;;4928945;29;24961;-56
2021/01/07 05:44:09;;;;;;;7.32;6.72;;;35.60;50.40;;;;;;4909249;29;20323;-52
2021/01/07 05:46:40;;;;;;;6.72;6.20;;;35.60;50.30;;;;;;4883502;28;20239;-55
2021/01/07 05:49:11;;;;;;;6.97;6.28;;;35.70;50.50;;;;;;4928021;28;20234;-55
2021/01/07 05:51:43;;;;;;;6.35;5.85;;;35.70;50.70;;;;;;4929668;28;20708;-53
2021/01/07 05:54:14;;;;;;;7.10;6.47;;;35.80;50.90;;;;;;4926444;28;20244;-54
2021/01/07 05:56:44;;;;;;;7.07;6.47;;;35.80;50.60;;;;;;4925880;28;20268;-54
2021/01/07 05:59:14;;;;;;;7.20;6.60;;;35.90;50.20;;;;;;4998530;28;20266;-51
2021/01/07 06:01:45;;;;;;;7.55;6.90;;;36.00;50.00;;;;;;5026686;28;20699;-56
2021/01/07 06:04:16;;;;;;;7.80;7.10;;;36.00;49.50;;;;;;5025164;28;20329;-55
2021/01/07 06:06:47;;;;;;;7.18;6.47;;;36.00;49.30;;;;;;4966886;28;20236;-55
2021/01/07 06:09:18;;;;;;;7.18;6.57;;;36.00;49.50;;;;;;4965960;28;20229;-58
2021/01/07 06:11:48;;;;;;;7.30;6.70;;;36.00;49.30;;;;;;4966320;28;20236;-57
2021/01/07 06:14:19;;;;;;;7.75;7.15;;;35.90;49.30;;;;;;4966104;28;20248;-56
2021/01/07 06:16:49;;;;;;;7.50;6.90;;;35.90;49.00;;;;;;4961843;28;20316;-55
2021/01/07 06:19:32;;;;;;;8.30;7.60;;;35.80;49.00;;;;;;4964265;28;20236;-53
2021/01/07 06:22:10;;;;;;;10.82;9.80;;;35.80;49.30;;;;;;4964889;28;20376;-53
2021/01/07 06:24:41;;;;;;;8.98;8.18;;;35.70;49.50;;;;;;4966549;28;20298;-55
2021/01/07 06:27:25;;;;;;;7.35;6.50;;;35.70;49.80;;;;;;4967127;28;20634;-55
2021/01/07 06:29:58;;;;;;;7.13;6.43;;;35.70;50.00;;;;;;4988065;28;20368;-57
2021/01/07 06:32:30;;;;;;;6.93;6.32;;;35.70;49.80;;;;;;4972590;28;20241;-56
2021/01/07 06:35:01;;;;;;;7.93;6.35;;;35.70;49.60;;;;;;4961956;28;20256;-54
2021/01/07 06:37:33;;;;;;;6.72;6.07;;;35.70;49.90;;;;;;4964729;28;20294;-54
2021/01/07 06:40:04;;;;;;;5.93;5.45;;;35.80;49.80;;;;;;4965266;28;20238;-56
2021/01/07 06:42:36;;;;;;;6.63;6.00;;;35.90;50.10;;;;;;4968247;28;20261;-54
2021/01/07 06:45:08;;;;;;;6.78;6.18;;;36.00;49.70;;;;;;4966579;28;20252;-50
2021/01/07 06:47:39;;;;;;;6.35;5.85;;;36.10;49.50;;;;;;4965903;28;20240;-56
2021/01/07 06:50:12;;;;;;;6.97;6.38;;;36.10;49.20;;;;;;4960357;28;20239;-52
2021/01/07 06:52:43;;;;;;;7.28;6.57;;;36.10;48.90;;;;;;4960269;28;21015;-51
2021/01/07 06:55:14;;;;;;;6.88;6.25;;;36.20;48.70;;;;;;4968328;28;20235;-52
2021/01/07 06:57:45;;;;;;;6.40;5.82;;;36.10;48.80;;;;;;4966194;28;20225;-51
2021/01/07 07:00:16;;;;;;;7.30;6.30;;;36.10;48.80;;;;;;4980355;28;20245;-55
2021/01/07 07:03:00;;;;;;;6.78;6.28;;;36.10;48.80;;;;;;4966602;28;20262;-51
2021/01/07 07:05:32;;;;;;;6.82;6.22;;;36.10;49.00;;;;;;4965725;28;20242;-54
2021/01/07 07:08:10;;;;;;;6.70;6.13;;;36.10;48.90;;;;;;4971884;28;20335;-50
2021/01/07 07:11:09;;;;;;;6.93;6.28;;;36.10;48.80;;;;;;4965921;28;20243;-52
2021/01/07 07:13:43;;;;;;;8.23;6.35;;;36.20;48.70;;;;;;5022643;28;20230;-51
2021/01/07 07:16:17;;;;;;;6.65;6.07;;;36.20;49.00;;;;;;5023593;28;20241;-54
2021/01/07 07:18:47;;;;;;;7.68;7.00;;;36.30;48.90;;;;;;4967316;28;20280;-51
2021/01/07 07:21:19;;;;;;;7.65;6.95;;;36.30;49.10;;;;;;4967585;28;20228;-50
2021/01/07 07:23:51;;;;;;;7.13;6.43;;;36.40;49.10;;;;;;4965178;28;20628;-53
2021/01/07 07:26:37;;;;;;;7.07;6.40;;;36.50;48.60;;;;;;4964354;28;20254;-50
2021/01/07 07:29:09;;;;;;;8.65;7.10;;;36.60;48.60;;;;;;4959216;28;20228;-52
2021/01/07 07:31:43;;;;;;;8.00;7.30;;;36.60;49.00;;;;;;4963934;28;20282;-50
2021/01/07 07:34:14;;;;;;;12.82;8.00;;;36.60;49.10;;;;;;4962767;28;20250;-51
2021/01/07 07:36:45;;;;;;;8.13;7.43;;;36.60;49.30;;;;;;4966596;28;20715;-53
2021/01/07 07:39:17;;;;;;;8.05;7.22;;;36.60;49.00;;;;;;4969046;28;20255;-55
2021/01/07 07:41:48;;;;;;;11.27;9.10;;;36.50;49.30;;;;;;4971027;28;20327;-56
2021/01/07 07:44:23;;;;;;;7.75;7.15;;;36.50;49.40;;;;;;4988644;28;20257;-53
2021/01/07 07:46:54;;;;;;;8.52;7.35;;;36.50;49.50;;;;;;5025080;28;20401;-50
2021/01/07 07:49:25;;;;;;;8.27;7.45;;;36.50;49.10;;;;;;4950817;28;20232;-53
2021/01/07 07:51:56;;;;;;;8.32;7.40;;;36.50;49.20;;;;;;4926480;28;20308;-53
2021/01/07 07:54:28;;;;;;;8.80;8.02;;;36.60;49.30;;;;;;4931812;28;20226;-52
2021/01/07 07:57:01;;;;;;;8.40;7.57;;;36.60;49.50;;;;;;4929918;29;20633;-50
2021/01/07 07:59:35;;;;;;;9.13;8.10;;;36.60;49.30;;;;;;4930281;29;20244;-51
2021/01/07 08:02:06;;;;;;;7.75;7.05;;;36.60;49.40;;;;;;4928594;28;20233;-53
2021/01/07 08:04:43;;;;;;;8.05;7.35;;;36.60;49.50;;;;;;4886770;28;20235;-50
2021/01/07 08:07:14;;;;;;;8.63;7.78;;;36.60;49.50;;;;;;4870941;28;20295;-49
2021/01/07 08:09:46;;;;;;;8.48;7.78;;;36.50;49.40;;;;;;4871873;28;20232;-49
2021/01/07 08:12:19;;;;;;;9.95;7.68;;;36.50;49.90;;;;;;4878413;28;20243;-54
2021/01/07 08:14:49;;;;;;;7.70;7.05;;;36.40;50.10;;;;;;4901351;28;20246;-50
2021/01/07 08:17:25;;;;;;;8.02;7.30;;;36.40;50.40;;;;;;4852830;29;20782;-54
2021/01/07 08:19:56;;;;;;;8.30;7.50;;;36.40;50.50;;;;;;4854115;29;20240;-50
2021/01/07 08:22:29;;;;;;;9.30;7.90;;;36.50;50.40;;;;;;4853304;29;20228;-49
2021/01/07 08:25:01;;;;;;;8.10;7.40;;;36.50;50.00;;;;;;4854229;29;20248;-49
2021/01/07 08:27:31;;;;;;;9.13;8.23;;;36.40;50.00;;;;;;4846720;29;20858;-50
2021/01/07 08:30:02;;;;;;;9.60;8.70;;;36.40;50.30;;;;;;4850567;29;20241;-56
2021/01/07 08:32:35;;;;;;;8.32;7.53;;;36.30;50.40;;;;;;4851001;29;20237;-54
2021/01/07 08:35:10;;;;;;;9.07;7.72;;;36.30;50.50;;;;;;4856316;29;20243;-54
2021/01/07 08:37:43;;;;;;;9.55;8.63;;;36.30;50.70;;;;;;4873838;28;20254;-52
2021/01/07 08:40:17;;;;;;;7.63;6.93;;;36.20;51.10;;;;;;4916011;28;20248;-52
2021/01/07 08:42:47;;;;;;;7.82;7.22;;;36.10;51.30;;;;;;4902386;29;20246;-56
2021/01/07 08:45:19;;;;;;;8.68;7.88;;;36.10;51.30;;;;;;4909434;29;20239;-56
2021/01/07 08:47:49;;;;;;;8.25;7.45;;;36.20;51.10;;;;;;4921998;28;20237;-56
2021/01/07 08:50:20;;;;;;;10.60;9.25;;;36.20;51.40;;;;;;4969557;28;20263;-56
2021/01/07 08:52:51;;;;;;;11.02;8.52;;;36.10;51.40;;;;;;4966578;28;20532;-51
2021/01/07 08:55:23;;;;;;;11.20;9.82;;;36.20;51.60;;;;;;4967560;28;20286;-56
2021/01/07 08:58:02;;;;;;;13.65;12.32;;;36.10;51.40;;;;;;4925788;28;20242;-53
2021/01/07 09:00:32;;;;;;;8.65;7.75;;;36.10;51.40;;;;;;4870598;29;20244;-54
2021/01/07 09:03:05;;;;;;;8.43;7.63;;;36.10;51.20;;;;;;4871568;28;20643;-56
2021/01/07 09:05:35;;;;;;;8.52;7.72;;;36.10;51.40;;;;;;4871760;29;20273;-50
2021/01/07 09:08:09;;;;;;;8.48;7.70;;;36.10;51.50;;;;;;4870675;29;20708;-51
2021/01/07 09:10:41;;;;;;;8.95;8.05;;;36.00;51.20;;;;;;4871402;29;20798;-49
2021/01/07 09:13:19;;;;;;;8.63;7.72;;;36.00;51.40;;;;;;4870832;28;20352;-52
2021/01/07 09:15:49;;;;;;;8.43;7.60;;;36.00;51.70;;;;;;4872578;29;20240;-50
2021/01/07 09:18:20;;;;;;;8.45;7.65;;;35.90;51.80;;;;;;4871018;28;20249;-51
2021/01/07 09:20:50;;;;;;;8.60;6.95;;;35.80;52.00;;;;;;4870857;28;20259;-50
2021/01/07 09:23:21;;;;;;;8.20;7.28;;;35.80;52.10;;;;;;4920024;28;20242;-51
2021/01/07 09:25:53;;;;;;;9.45;8.43;;;35.80;52.30;;;;;;4971047;28;20264;-52
2021/01/07 09:28:23;;;;;;;8.75;7.90;;;35.70;52.70;;;;;;5011541;28;20233;-52
2021/01/07 09:30:54;;;;;;;10.30;8.82;;;35.60;52.80;;;;;;4965021;28;20245;-53
2021/01/07 09:33:25;;;;;;;10.80;9.68;;;35.60;52.90;;;;;;4925327;29;20647;-52
2021/01/07 09:35:55;;;;;;;9.98;8.93;;;35.50;53.20;;;;;;4925416;29;20234;-51
2021/01/07 09:38:27;;;;;;;9.85;8.95;;;35.50;53.30;;;;;;4921112;28;20690;-51
2021/01/07 09:40:59;;;;;;;10.70;8.10;;;35.40;53.70;;;;;;4926050;28;20244;-53
2021/01/07 09:43:33;;;;;;;8.85;7.95;;;35.40;53.80;;;;;;4924512;28;20323;-54
2021/01/07 09:46:04;;;;;;;8.90;8.00;;;35.50;54.00;;;;;;4926304;28;20237;-50
2021/01/07 09:48:35;;;;;;;8.45;7.50;;;35.60;54.40;;;;;;4921296;28;20234;-55
2021/01/07 09:51:06;;;;;;;9.20;8.30;;;35.60;54.20;;;;;;4916172;28;20242;-51
2021/01/07 09:53:36;;;;;;;8.85;7.72;;;35.70;54.00;;;;;;4937476;28;20364;-55
2021/01/07 09:56:08;;;;;;;10.70;9.70;;;36.00;53.90;;;;;;4914411;29;20238;-53
2021/01/07 09:58:39;;;;;;;12.60;10.27;;;36.10;53.50;;;;;;4931034;28;20303;-55
2021/01/07 10:01:10;;;;;;;11.15;10.13;;;36.20;53.80;;;;;;4916352;29;20261;-49
2021/01/07 10:03:40;;;;;;;11.27;10.18;;;36.30;53.00;;;;;;4922658;28;20225;-51
2021/01/07 10:06:11;;;;;;;11.80;10.60;;;36.30;53.50;;;;;;4960715;28;20655;-52
2021/01/07 10:08:41;;;;;;;12.30;9.95;;;36.30;52.80;;;;;;4964125;28;20614;-55
2021/01/07 10:11:15;;;;;;;10.95;9.20;;;36.20;52.80;;;;;;4961719;28;20240;-53
2021/01/07 10:13:46;;;;;;;10.60;9.50;;;36.10;53.00;;;;;;4958290;28;20240;-57
2021/01/07 10:16:16;;;;;;;10.10;9.10;;;35.90;53.10;;;;;;4967266;28;20672;-57
2021/01/07 10:18:47;;;;;;;9.55;8.65;;;35.90;53.30;;;;;;4964054;28;20282;-53
2021/01/07 10:21:21;;;;;;;10.25;9.25;;;35.80;53.60;;;;;;4963079;28;20713;-54
2021/01/07 10:23:52;;;;;;;8.98;8.18;;;35.70;53.90;;;;;;4964552;28;20731;-54
2021/01/07 10:26:24;;;;;;;9.18;8.25;;;35.70;54.10;;;;;;4963333;28;20224;-53
2021/01/07 10:28:55;;;;;;;9.73;8.75;;;35.70;54.40;;;;;;4962148;28;20237;-53
2021/01/07 10:31:28;;;;;;;9.23;8.32;;;35.80;54.60;;;;;;4958334;28;20274;-55
2021/01/07 10:33:58;;;;;;;11.35;8.48;;;35.80;54.40;;;;;;4958521;28;21073;-50
2021/01/07 10:36:28;;;;;;;11.10;8.40;;;35.90;54.40;;;;;;4961436;28;20245;-53
2021/01/07 10:39:00;;;;;;;9.02;7.90;;;35.90;54.10;;;;;;4951571;28;20237;-51
2021/01/07 10:41:32;;;;;;;9.00;7.78;;;36.00;54.10;;;;;;4961878;28;20239;-55
2021/01/07 10:44:04;;;;;;;9.13;8.32;;;36.00;53.90;;;;;;4960397;28;20237;-53
2021/01/07 10:46:37;;;;;;;7.78;7.15;;;36.00;53.90;;;;;;4960135;28;20236;-57
2021/01/07 10:49:08;;;;;;;8.15;7.07;;;36.10;53.80;;;;;;4956698;28;20232;-56
2021/01/07 10:51:45;;;;;;;9.95;8.32;;;36.10;53.60;;;;;;4957974;28;20252;-51
2021/01/07 10:54:22;;;;;;;9.02;8.00;;;36.10;53.70;;;;;;4965522;28;20228;-56
2021/01/07 10:57:21;;;;;;;8.75;7.28;;;36.10;53.60;;;;;;4984872;28;20239;-52
2021/01/07 10:59:58;;;;;;;9.30;7.57;;;36.00;53.60;;;;;;4958001;28;20263;-52
2021/01/07 11:02:48;;;;;;;8.52;7.65;;;36.00;53.70;;;;;;4976676;28;20232;-53
2021/01/07 11:05:19;;;;;;;8.25;7.20;;;35.90;54.00;;;;;;4960493;28;20243;-56
2021/01/07 11:07:57;;;;;;;8.05;7.25;;;35.80;53.90;;;;;;4962371;28;20800;-52
2021/01/07 11:10:28;;;;;;;8.75;7.18;;;35.60;54.00;;;;;;4966262;28;20234;-54
2021/01/07 11:13:00;;;;;;;8.57;7.80;;;35.50;54.20;;;;;;4965302;28;20724;-56
2021/01/07 11:15:31;;;;;;;8.88;8.07;;;35.40;54.60;;;;;;4973145;28;20692;-52
2021/01/07 11:18:08;;;;;;;9.85;8.85;;;35.30;54.80;;;;;;4967709;28;20240;-50
2021/01/07 11:20:40;;;;;;;9.07;8.07;;;35.20;55.20;;;;;;4964413;28;20255;-50
2021/01/07 11:23:11;;;;;;;9.77;8.65;;;35.10;55.20;;;;;;4964610;28;20232;-50
2021/01/07 11:25:41;;;;;;;9.02;8.23;;;35.00;55.60;;;;;;4961745;28;20893;-55
2021/01/07 11:28:13;;;;;;;9.15;8.35;;;34.90;55.90;;;;;;4966283;28;20238;-53
2021/01/07 11:30:44;;;;;;;10.23;9.32;;;34.70;56.20;;;;;;4967297;28;20312;-56
2021/01/07 11:33:15;;;;;;;9.90;8.90;;;34.70;56.40;;;;;;4964221;28;20656;-55
2021/01/07 11:35:45;;;;;;;9.48;8.68;;;34.60;56.60;;;;;;4969514;28;20300;-54
2021/01/07 11:38:23;;;;;;;9.75;8.75;;;34.50;56.90;;;;;;4968425;28;20236;-53
2021/01/07 11:41:03;;;;;;;9.65;8.75;;;34.40;57.60;;;;;;4965276;28;20243;-55
2021/01/07 11:44:02;;;;;;;9.88;8.88;;;34.30;57.90;;;;;;4974514;28;20311;-52
2021/01/07 11:46:35;;;;;;;10.48;9.27;;;34.20;58.00;;;;;;5025496;28;20317;-53
2021/01/07 11:49:06;;;;;;;9.18;8.32;;;34.10;57.80;;;;;;5029354;28;20289;-55
2021/01/07 11:51:37;;;;;;;9.93;9.02;;;34.00;58.10;;;;;;5029912;28;20722;-56
2021/01/07 11:54:08;;;;;;;13.02;9.40;;;34.00;58.50;;;;;;5028486;28;20278;-52
2021/01/07 11:56:39;;;;;;;10.18;9.27;;;33.90;58.70;;;;;;5026222;28;20563;-55
2021/01/07 11:59:11;;;;;;;10.93;9.82;;;33.80;58.90;;;;;;4984563;28;20311;-55
2021/01/07 12:01:41;;;;;;;10.63;9.63;;;33.70;59.10;;;;;;4990109;28;20223;-54
2021/01/07 12:04:12;;;;;;;11.63;9.77;;;33.60;59.30;;;;;;4907055;29;20236;-52
2021/01/07 12:06:49;;;;;;;10.50;9.57;;;33.60;59.60;;;;;;4870691;29;20774;-53
2021/01/07 12:09:23;;;;;;;11.90;10.40;;;33.50;60.00;;;;;;4870192;29;20316;-53
2021/01/07 12:11:58;;;;;;;11.93;9.75;;;33.40;60.00;;;;;;4871047;29;20338;-51
2021/01/07 12:14:32;;;;;;;12.77;11.10;;;33.30;60.20;;;;;;4871073;29;20231;-54
2021/01/07 12:17:06;;;;;;;11.90;10.77;;;33.30;60.50;;;;;;4870275;29;20946;-53
2021/01/07 12:19:36;;;;;;;12.25;10.57;;;33.20;60.40;;;;;;4871571;29;20244;-50
2021/01/07 12:22:08;;;;;;;10.65;9.70;;;33.10;60.50;;;;;;4868668;29;20728;-55
2021/01/07 12:24:38;;;;;;;10.32;9.32;;;33.10;60.70;;;;;;4872324;28;20239;-56
2021/01/07 12:27:09;;;;;;;10.10;9.20;;;33.00;60.80;;;;;;4871755;29;20236;-54
2021/01/07 12:29:41;;;;;;;9.02;8.27;;;33.00;60.90;;;;;;4933153;28;20571;-55
2021/01/07 12:32:15;;;;;;;9.73;8.93;;;32.90;61.20;;;;;;4962177;28;20276;-50
2021/01/07 12:34:48;;;;;;;9.98;9.10;;;32.80;61.30;;;;;;4994152;28;20232;-49
2021/01/07 12:37:19;;;;;;;9.68;8.77;;;32.80;61.30;;;;;;4966483;28;20685;-49
2021/01/07 12:39:57;;;;;;;10.32;8.93;;;32.70;61.30;;;;;;4969400;28;20237;-53
2021/01/07 12:42:30;;;;;;;9.57;8.68;;;32.70;61.60;;;;;;4968239;28;20229;-55
2021/01/07 12:45:03;;;;;;;9.35;8.63;;;32.70;61.60;;;;;;4966345;28;20235;-55
2021/01/07 12:47:34;;;;;;;13.52;9.75;;;32.60;61.60;;;;;;4967317;28;20228;-54
2021/01/07 12:50:06;;;;;;;11.65;10.65;;;32.60;61.60;;;;;;4964218;28;20236;-53
2021/01/07 12:52:37;;;;;;;11.27;10.13;;;32.50;61.50;;;;;;4967222;28;20707;-54
2021/01/07 12:55:09;;;;;;;11.35;10.23;;;32.50;61.60;;;;;;4968365;28;20225;-56
2021/01/07 12:57:48;;;;;;;10.35;9.35;;;32.50;61.60;;;;;;4962731;28;20233;-56
2021/01/07 13:00:20;;;;;;;11.75;10.05;;;32.40;61.80;;;;;;4964474;28;20236;-52
2021/01/07 13:02:57;;;;;;;11.95;10.02;;;32.40;61.80;;;;;;4960498;28;20683;-56
2021/01/07 13:05:29;;;;;;;11.10;10.02;;;32.30;61.80;;;;;;4967863;28;20319;-55
2021/01/07 13:08:01;;;;;;;11.20;9.95;;;32.30;61.90;;;;;;4969756;28;20311;-54
2021/01/07 13:10:36;;;;;;;12.43;10.13;;;32.30;62.00;;;;;;4964764;28;20237;-55